Shinwamaru — SHINWA — position and weather

sailwx.info

Track history (hours):
 
Tides and Currents Weather Stations Pressure Air Temp Water Temp Dewpoint Dewpoint Depression Visibility Wind Speed Wind Dir Waves Ship Positions

Shinwamaru

Last reported at 2018-Apr-23 21:40 UTC. Time now 2018-Apr-24 02:26 UTC.
Position N 35°31' E 139°48'.

Length 12 m.

Type: Tug. MMSI: 431009702.

Date/timePositionNaut miles runAvg speedWind from/ knotsBaromVisibWave heightAir tempDewpointWater temp
2018-Apr-23 21:40N 35°31' E 139°48'3 7.6
2018-Apr-23 21:17N 35°30' E 139°45'2 8.0
2018-Apr-23 21:00N 35°29' E 139°42'3 0.2
2018-Apr-23 07:13N 35°27' E 139°40'0 1.2
2018-Apr-23 07:00N 35°27' E 139°40'3 5.8
2018-Apr-23 06:28N 35°29' E 139°42'4 6.8
2018-Apr-23 05:56N 35°30' E 139°47'2 0.5
2018-Apr-23 02:25N 35°30' E 139°49'2 3.7
2018-Apr-23 01:58N 35°29' E 139°47'2 3.7
2018-Apr-23 01:28N 35°27' E 139°46'2 3.8
2018-Apr-23 01:00N 35°26' E 139°44'2 3.9
2018-Apr-23 00:30N 35°25' E 139°43'2 3.7
2018-Apr-23 00:00N 35°23' E 139°42'2 3.9
2018-Apr-22 23:30N 35°21' E 139°41'2 3.8
2018-Apr-22 22:55N 35°19' E 139°40'2 4.0
2018-Apr-22 22:30N 35°18' E 139°38'0 0.1
2018-Apr-22 21:56N 35°18' E 139°38'3 7.5
2018-Apr-22 21:29N 35°21' E 139°40'4 8.1
2018-Apr-22 21:00N 35°24' E 139°42'3 5.6
2018-Apr-22 20:30N 35°27' E 139°40'  
2018-Apr-16 07:15N 35°27' E 139°40'1 6.2
2018-Apr-16 07:01N 35°28' E 139°40'4 8.1
2018-Apr-16 06:29N 35°30' E 139°45'2 0.4
2018-Apr-16 00:36N 35°30' E 139°48'2 8.2
2018-Apr-16 00:19N 35°30' E 139°45'3 8.0
2018-Apr-16 00:00N 35°29' E 139°42'3 6.0
2018-Apr-15 23:29N 35°27' E 139°40'0 0.1
2018-Apr-15 23:00N 35°27' E 139°40'0 0.0
2018-Apr-15 22:30N 35°27' E 139°40'0 0.0
2018-Apr-15 21:27N 35°27' E 139°40'0 0.0
2018-Apr-14 00:27N 35°27' E 139°40'  
Track history (hours):
 
Tides and Currents Weather Stations Pressure Air Temp Water Temp Dewpoint Dewpoint Depression Visibility Wind Speed Wind Dir Waves Ship Positions

Shinwamaru

Last reported at 2018-Apr-23 21:40 UTC. Time now 2018-Apr-24 02:26 UTC.
Position N 35°31' E 139°48'.

Length 12 m.

Type: Tug. MMSI: 431009702.

Date/timePositionNaut miles runAvg speedWind from/ knotsBaromVisibWave heightAir tempDewpointWater temp
2018-Apr-23 21:40N 35°31' E 139°48'3 7.6
2018-Apr-23 21:17N 35°30' E 139°45'2 8.0
2018-Apr-23 21:00N 35°29' E 139°42'3 0.2
2018-Apr-23 07:13N 35°27' E 139°40'0 1.2
2018-Apr-23 07:00N 35°27' E 139°40'3 5.8
2018-Apr-23 06:28N 35°29' E 139°42'4 6.8
2018-Apr-23 05:56N 35°30' E 139°47'2 0.5
2018-Apr-23 02:25N 35°30' E 139°49'2 3.7
2018-Apr-23 01:58N 35°29' E 139°47'2 3.7
2018-Apr-23 01:28N 35°27' E 139°46'2 3.8
2018-Apr-23 01:00N 35°26' E 139°44'2 3.9
2018-Apr-23 00:30N 35°25' E 139°43'2 3.7
2018-Apr-23 00:00N 35°23' E 139°42'2 3.9
2018-Apr-22 23:30N 35°21' E 139°41'2 3.8
2018-Apr-22 22:55N 35°19' E 139°40'2 4.0
2018-Apr-22 22:30N 35°18' E 139°38'0 0.1
2018-Apr-22 21:56N 35°18' E 139°38'3 7.5
2018-Apr-22 21:29N 35°21' E 139°40'4 8.1
2018-Apr-22 21:00N 35°24' E 139°42'3 5.6
2018-Apr-22 20:30N 35°27' E 139°40'  
2018-Apr-16 07:15N 35°27' E 139°40'1 6.2
2018-Apr-16 07:01N 35°28' E 139°40'4 8.1
2018-Apr-16 06:29N 35°30' E 139°45'2 0.4
2018-Apr-16 00:36N 35°30' E 139°48'2 8.2
2018-Apr-16 00:19N 35°30' E 139°45'3 8.0
2018-Apr-16 00:00N 35°29' E 139°42'3 6.0
2018-Apr-15 23:29N 35°27' E 139°40'0 0.1
2018-Apr-15 23:00N 35°27' E 139°40'0 0.0
2018-Apr-15 22:30N 35°27' E 139°40'0 0.0
2018-Apr-15 21:27N 35°27' E 139°40'0 0.0
2018-Apr-14 00:27N 35°27' E 139°40'  

Dump ship's entire track history